Time;durP1;ratioP1;P1;durP2;ratioP2;P2;SDS_P1;SDS_P2;PMS_P1;PMS_P2;Temp;Humidity;BMP_temperature;BMP_pressure;BME280_temperature;BME280_humidity;BME280_pressure;Samples;Min_cycle;Max_cycle;Signal;HPM_P1;HPM_P2
2022/06/03 00:01:29;;;;;;;8.05;2.80;;;;;;;15.17;75.25;96071.22;10322240;28;97350;-71
2022/06/03 00:06:54;;;;;;;6.40;2.20;;;;;;;15.04;75.15;96070.00;10320325;28;99197;-71
2022/06/03 00:12:17;;;;;;;5.53;2.60;;;;;;;15.07;75.16;96072.28;10317526;28;98693;-71
2022/06/03 00:17:43;;;;;;;6.20;2.53;;;;;;;15.07;74.48;96068.84;10313878;28;98849;-70
2022/06/03 00:23:03;;;;;;;5.47;2.08;;;;;;;15.10;74.41;96066.69;10317190;28;97907;-71
2022/06/03 00:28:50;;;;;;;4.57;2.10;;;;;;;15.07;74.56;96071.47;10314886;28;99296;-71
2022/06/03 00:34:11;;;;;;;5.35;2.10;;;;;;;14.96;74.24;96069.28;10309584;28;98680;-70
2022/06/03 00:39:28;;;;;;;5.93;2.25;;;;;;;14.89;74.68;96058.69;10313778;28;98659;-71
2022/06/03 00:44:58;;;;;;;4.45;2.17;;;;;;;14.75;74.62;96061.09;10317547;28;97368;-71
2022/06/03 00:50:17;;;;;;;6.57;2.33;;;;;;;14.62;75.47;96058.25;10317075;28;97486;-71
2022/06/03 00:55:42;;;;;;;4.20;2.15;;;;;;;14.69;75.08;96051.28;10322841;28;97917;-71
2022/06/03 01:01:04;;;;;;;4.20;2.30;;;;;;;14.75;74.60;96055.03;10328423;28;96925;-71
2022/06/03 01:06:22;;;;;;;3.25;2.10;;;;;;;14.74;75.14;96064.69;10323900;28;101908;-71
2022/06/03 01:11:44;;;;;;;3.88;2.20;;;;;;;14.63;74.55;96065.16;10318055;28;98642;-71
2022/06/03 01:17:00;;;;;;;5.32;2.47;;;;;;;14.65;74.90;96057.88;10325673;28;97317;-71
2022/06/03 01:22:44;;;;;;;5.03;2.38;;;;;;;14.59;75.06;96065.66;10320384;28;96747;-71
2022/06/03 01:28:34;;;;;;;5.00;2.20;;;;;;;14.48;75.37;96077.41;10324538;28;97923;-71
2022/06/03 01:33:54;;;;;;;5.45;2.20;;;;;;;14.52;75.61;96069.00;10320455;28;98499;-71
2022/06/03 01:39:05;;;;;;;4.60;2.13;;;;;;;14.58;76.08;96056.16;10320649;28;98440;-71
2022/06/03 01:44:25;;;;;;;7.97;2.17;;;;;;;14.60;75.86;96054.16;10325101;28;98274;-72
2022/06/03 01:50:13;;;;;;;5.05;2.42;;;;;;;14.55;76.47;96068.63;10318461;28;98548;-71
2022/06/03 01:55:38;;;;;;;6.00;2.45;;;;;;;14.54;76.20;96077.53;10193644;28;97488;-70
2022/06/03 02:00:49;;;;;;;9.35;2.70;;;;;;;14.62;76.26;96065.31;10194089;28;98548;-71
2022/06/03 02:06:51;;;;;;;8.68;2.63;;;;;;;14.60;76.67;96070.75;10197536;28;97160;-71
2022/06/03 02:12:25;;;;;;;3.72;2.15;;;;;;;14.58;75.35;96064.84;10191676;28;97015;-71
2022/06/03 02:18:03;;;;;;;6.65;2.38;;;;;;;14.71;75.33;96062.44;10191536;28;98885;-71
2022/06/03 02:23:46;;;;;;;5.75;2.42;;;;;;;14.67;75.92;96058.53;10197446;28;99232;-71
2022/06/03 02:34:57;;;;;;;6.75;2.50;;;;;;;14.75;75.37;96011.13;10322075;28;98494;-71
2022/06/03 02:40:21;;;;;;;5.00;2.40;;;;;;;14.73;75.39;96002.59;10317209;28;97195;-71
2022/06/03 02:45:57;;;;;;;5.75;2.38;;;;;;;14.71;76.40;95982.72;10315422;28;100510;-71
2022/06/03 02:51:16;;;;;;;7.15;2.47;;;;;;;14.69;75.88;96001.31;10318915;28;96999;-71
2022/06/03 02:56:47;;;;;;;6.90;2.30;;;;;;;14.67;76.44;96008.56;10319466;28;99973;-71
2022/06/03 03:02:19;;;;;;;6.88;2.53;;;;;;;14.74;76.49;95998.97;10315494;28;97424;-71
2022/06/03 03:07:37;;;;;;;6.18;2.22;;;;;;;14.63;76.80;96002.06;10319632;28;98628;-71
2022/06/03 03:13:22;;;;;;;5.55;2.42;;;;;;;14.52;77.21;95989.31;10319899;28;99038;-71
2022/06/03 03:18:53;;;;;;;7.72;3.08;;;;;;;14.47;76.98;95986.41;10314740;28;98429;-71
2022/06/03 03:24:25;;;;;;;6.55;2.40;;;;;;;14.45;77.19;95983.16;10319346;28;99321;-71
2022/06/03 03:29:42;;;;;;;5.68;2.50;;;;;;;14.26;77.11;95985.25;10317566;28;98609;-71
2022/06/03 03:35:23;;;;;;;7.68;2.60;;;;;;;14.15;77.43;96002.25;10318609;28;98472;-71
2022/06/03 03:40:49;;;;;;;8.40;2.30;;;;;;;14.15;77.80;95998.81;10228435;28;98638;-70
2022/06/03 03:46:24;;;;;;;15.45;3.70;;;;;;;13.94;78.64;96004.69;10226582;28;99048;-71
2022/06/03 03:51:35;;;;;;;7.33;2.60;;;;;;;13.84;78.71;96001.47;10228950;28;99485;-71
2022/06/03 03:57:08;;;;;;;8.55;2.80;;;;;;;13.91;79.43;96013.72;10229842;28;97069;-71
2022/06/03 04:02:46;;;;;;;6.60;2.60;;;;;;;13.94;78.80;96021.25;10228952;28;98396;-71
2022/06/03 04:08:15;;;;;;;7.15;2.58;;;;;;;13.87;79.66;96017.72;10234826;28;97589;-71
2022/06/03 04:14:03;;;;;;;6.47;2.30;;;;;;;13.81;79.11;96042.00;10248493;28;97392;-71
2022/06/03 04:19:38;;;;;;;6.72;2.50;;;;;;;13.86;78.86;96044.94;10319216;28;97731;-71
2022/06/03 04:25:10;;;;;;;5.47;2.65;;;;;;;13.96;79.06;96037.66;10318671;28;98583;-71
2022/06/03 04:30:33;;;;;;;9.80;2.67;;;;;;;14.12;78.59;96030.66;10316311;28;100500;-71
2022/06/03 04:36:14;;;;;;;9.98;2.80;;;;;;;14.19;78.17;96026.34;10316882;28;97645;-71
2022/06/03 04:41:49;;;;;;;7.88;2.20;;;;;;;14.25;79.08;96014.34;10318005;28;97832;-71
2022/06/03 04:47:30;;;;;;;4.63;2.30;;;;;;;14.37;78.44;96005.88;10316469;28;98599;-71
2022/06/03 04:53:18;;;;;;;5.93;2.20;;;;;;;14.52;78.96;96000.69;10324013;28;98579;-70
2022/06/03 04:58:59;;;;;;;5.93;2.67;;;;;;;14.72;77.98;96000.16;10328134;28;97926;-71
2022/06/03 05:04:41;;;;;;;6.05;2.60;;;;;;;14.82;77.99;95974.41;10317666;28;98517;-71
2022/06/03 05:10:17;;;;;;;7.68;2.83;;;;;;;15.03;77.66;95980.78;10318408;28;97002;-71
2022/06/03 05:16:00;;;;;;;6.35;2.13;;;;;;;15.13;77.38;95976.06;10312068;28;97255;-71
2022/06/03 05:21:37;;;;;;;4.78;2.40;;;;;;;15.20;77.22;95995.38;10312686;28;96901;-71
2022/06/03 05:27:25;;;;;;;6.97;2.20;;;;;;;15.40;76.64;95992.97;10315920;28;96903;-71
2022/06/03 05:33:02;;;;;;;5.47;2.70;;;;;;;15.49;76.68;95975.25;10318521;28;98424;-71
2022/06/03 05:38:37;;;;;;;3.95;2.33;;;;;;;15.63;76.80;95971.00;10318684;28;98189;-71
2022/06/03 05:43:57;;;;;;;5.95;2.67;;;;;;;15.77;76.43;95972.78;10321390;28;96861;-71
2022/06/03 05:49:12;;;;;;;7.32;2.30;;;;;;;16.00;76.20;95958.63;10316408;28;97086;-71
2022/06/03 05:54:31;;;;;;;6.45;2.38;;;;;;;16.36;75.77;95955.06;10322814;28;97337;-71
2022/06/03 05:59:48;;;;;;;5.20;2.70;;;;;;;16.66;75.15;95975.97;10322265;28;98534;-72
2022/06/03 06:05:10;;;;;;;5.22;2.60;;;;;;;16.75;74.80;95986.22;10332019;28;99733;-71
2022/06/03 06:10:29;;;;;;;6.72;2.88;;;;;;;16.94;73.94;95990.00;10320760;28;99007;-71
2022/06/03 06:15:49;;;;;;;8.35;2.83;;;;;;;17.15;73.99;95990.94;10324524;28;97098;-71
2022/06/03 06:21:06;;;;;;;;;;;;;;;17.19;74.13;95998.25;10322198;28;96962;-71
2022/06/03 06:26:34;;;;;;;6.32;2.80;;;;;;;17.38;73.80;96003.81;10320891;28;96985;-71
2022/06/03 06:32:15;;;;;;;5.43;2.47;;;;;;;17.59;73.67;96013.47;10320220;28;99328;-71
2022/06/03 06:37:41;;;;;;;5.85;2.42;;;;;;;17.73;72.80;95994.03;10323359;28;96854;-71
2022/06/03 06:43:02;;;;;;;5.82;2.75;;;;;;;17.94;72.56;95984.34;10319417;28;97101;-71
2022/06/03 06:48:15;;;;;;;4.10;2.42;;;;;;;18.19;71.47;95966.09;10320062;28;100703;-72
2022/06/03 06:53:28;;;;;;;5.38;2.20;;;;;;;18.46;71.01;95958.16;10317805;28;97752;-71
2022/06/03 06:58:45;;;;;;;5.45;3.13;;;;;;;18.77;69.25;95968.09;10331022;28;96928;-71
2022/06/03 07:03:55;;;;;;;5.07;2.53;;;;;;;19.05;67.78;95959.94;10306369;28;98540;-71
2022/06/03 07:09:08;;;;;;;5.90;2.60;;;;;;;19.24;66.22;95957.44;10316124;28;96862;-71
2022/06/03 07:14:20;;;;;;;6.13;2.60;;;;;;;19.33;65.74;95966.78;10301464;28;97527;-71
2022/06/03 07:24:58;;;;;;;6.32;2.58;;;;;;;19.55;65.37;95961.19;10308594;28;97984;-71
2022/06/03 07:30:08;;;;;;;7.28;2.92;;;;;;;19.77;64.99;95973.09;10325169;28;96851;-71
2022/06/03 07:35:19;;;;;;;5.47;2.50;;;;;;;19.91;64.74;95978.38;10304153;28;97001;-71
2022/06/03 07:40:27;;;;;;;6.72;3.20;;;;;;;20.10;63.96;95976.63;10310891;28;96951;-71
2022/06/03 07:45:49;;;;;;;4.97;2.72;;;;;;;20.35;61.76;95993.34;10311744;28;96960;-71
2022/06/03 07:50:59;;;;;;;4.25;2.58;;;;;;;20.54;61.78;95993.44;10311996;28;96840;-71
2022/06/03 07:56:03;;;;;;;4.15;2.40;;;;;;;20.73;61.55;96007.56;10302226;28;97070;-71
2022/06/03 08:01:20;;;;;;;5.93;2.50;;;;;;;20.92;60.57;96000.50;10313552;28;97516;-71
2022/06/03 08:06:31;;;;;;;3.80;2.40;;;;;;;21.00;59.36;96000.22;10310835;28;97556;-71
2022/06/03 08:11:35;;;;;;;3.40;2.60;;;;;;;21.10;58.81;95989.91;10305074;28;100070;-71
2022/06/03 08:16:42;;;;;;;3.92;2.53;;;;;;;21.08;58.73;95988.47;10308375;28;96875;-72
2022/06/03 08:21:48;;;;;;;5.13;2.88;;;;;;;20.83;60.07;95980.56;10312997;28;97395;-71
2022/06/03 08:26:54;;;;;;;7.72;2.60;;;;;;;20.72;59.88;95990.00;10308513;28;96919;-71
2022/06/03 08:32:00;;;;;;;4.07;2.50;;;;;;;20.48;61.07;96004.94;10303274;28;96722;-71
2022/06/03 08:37:04;;;;;;;6.50;2.88;;;;;;;20.34;62.36;96007.66;10315793;28;96903;-71
2022/06/03 08:42:22;;;;;;;7.80;3.42;;;;;;;20.51;63.68;96000.00;10318389;28;97081;-71
2022/06/03 08:47:36;;;;;;;5.50;3.30;;;;;;;20.72;63.62;95996.16;10301906;28;97357;-72
2022/06/03 08:52:50;;;;;;;7.20;3.30;;;;;;;20.65;63.73;95999.88;10315705;28;96726;-72
2022/06/03 08:57:59;;;;;;;3.90;3.33;;;;;;;20.63;65.27;96001.94;10309394;28;96804;-72
2022/06/03 09:03:09;;;;;;;5.57;3.00;;;;;;;20.58;65.48;96021.16;10309654;28;96759;-72
2022/06/03 09:08:18;;;;;;;6.97;3.40;;;;;;;20.65;64.26;96042.34;10314323;28;98244;-72
2022/06/03 09:13:28;;;;;;;7.10;4.13;;;;;;;20.88;63.59;96047.91;10311232;28;96915;-72
2022/06/03 09:18:40;;;;;;;5.90;3.65;;;;;;;21.16;63.46;96064.44;10316836;28;96981;-72
2022/06/03 09:23:47;;;;;;;5.28;3.63;;;;;;;21.26;62.69;96072.72;10312482;28;96995;-71
2022/06/03 09:28:52;;;;;;;5.57;3.80;;;;;;;21.35;63.34;96079.38;10310187;28;97316;-71
2022/06/03 09:33:57;;;;;;;7.80;3.72;;;;;;;21.43;62.01;96076.44;10316996;28;96790;-72
2022/06/03 09:39:05;;;;;;;4.65;3.63;;;;;;;21.53;63.04;96091.03;10330614;28;96826;-72
2022/06/03 09:44:12;;;;;;;6.82;3.70;;;;;;;21.63;64.08;96099.34;10307198;28;96983;-72
2022/06/03 09:49:20;;;;;;;6.28;3.85;;;;;;;21.90;63.23;96112.34;10315514;28;97176;-72
2022/06/03 09:54:25;;;;;;;6.40;3.38;;;;;;;22.20;61.81;96117.72;10316289;28;96921;-71
2022/06/03 09:59:31;;;;;;;4.50;3.10;;;;;;;22.38;59.73;96132.84;10308339;28;97209;-72
2022/06/03 10:04:36;;;;;;;6.40;3.50;;;;;;;22.32;60.31;96142.53;10321260;28;97251;-72
2022/06/03 10:20:23;;;;;;;6.32;3.45;;;;;;;21.90;59.65;96149.56;10312898;28;98366;-72
2022/06/03 10:25:27;;;;;;;;;;;;;;;21.93;60.37;96159.78;10314866;28;96847;-72
2022/06/03 10:30:32;;;;;;;7.10;3.47;;;;;;;21.90;61.03;96173.50;10315352;28;97367;-72
2022/06/03 10:35:40;;;;;;;4.55;3.03;;;;;;;21.89;61.91;96175.38;10307827;28;98522;-72
2022/06/03 10:40:48;;;;;;;4.25;3.40;;;;;;;22.25;59.86;96182.53;10325371;28;96904;-72
2022/06/03 10:45:51;;;;;;;5.22;2.75;;;;;;;22.75;58.04;96180.69;10323035;28;97756;-72
2022/06/03 10:51:14;;;;;;;4.93;3.17;;;;;;;23.01;58.10;96171.50;10320240;28;98165;-72
2022/06/03 11:01:43;;;;;;;4.18;2.42;;;;;;;23.74;54.49;96157.03;10316484;28;96798;-72
2022/06/03 11:06:48;;;;;;;5.13;2.65;;;;;;;24.03;57.31;96138.41;10327239;28;96941;-72
2022/06/03 11:11:53;;;;;;;3.53;2.72;;;;;;;24.30;53.60;96145.94;10324211;28;98507;-72
2022/06/03 11:17:02;;;;;;;5.72;2.78;;;;;;;24.41;53.03;96136.25;10327873;28;96937;-73
2022/06/03 11:22:19;;;;;;;4.95;2.30;;;;;;;24.53;52.97;96129.00;10298701;28;96942;-72
2022/06/03 11:27:26;;;;;;;4.60;2.88;;;;;;;24.44;51.64;96120.56;10302026;28;96775;-72
2022/06/03 11:32:31;;;;;;;5.40;2.95;;;;;;;24.68;52.97;96121.28;10319691;28;96943;-72
2022/06/03 11:37:39;;;;;;;3.47;2.55;;;;;;;24.85;50.68;96105.31;10308047;28;96823;-72
2022/06/03 11:42:47;;;;;;;8.40;6.32;;;;;;;24.90;51.85;96109.09;10309780;28;97008;-72
2022/06/03 11:47:55;;;;;;;4.35;3.58;;;;;;;24.91;50.38;96098.19;10319374;28;96958;-72
2022/06/03 11:53:00;;;;;;;12.63;11.38;;;;;;;25.22;50.81;96091.44;10300164;28;96730;-72
2022/06/03 11:58:09;;;;;;;4.25;2.90;;;;;;;25.50;48.84;96092.38;10323218;28;96895;-73
2022/06/03 12:03:30;;;;;;;2.83;2.30;;;;;;;25.22;49.18;96072.75;10313634;28;97499;-72
2022/06/03 12:08:47;;;;;;;5.03;2.60;;;;;;;25.15;50.41;96065.97;10306016;28;97366;-72
2022/06/03 12:14:15;;;;;;;4.78;3.00;;;;;;;24.97;50.53;96062.47;10306103;28;96989;-72
2022/06/03 12:19:37;;;;;;;6.25;2.95;;;;;;;24.54;51.49;96053.19;10312014;28;97015;-72
2022/06/03 12:24:52;;;;;;;3.90;2.95;;;;;;;24.51;52.69;96051.00;10311577;28;96777;-72
2022/06/03 12:30:45;;;;;;;3.95;2.90;;;;;;;24.30;52.45;96044.50;10309581;28;97023;-72
2022/06/03 12:35:56;;;;;;;6.23;3.30;;;;;;;23.93;51.91;96050.16;10293217;28;97039;-72
2022/06/03 12:41:08;;;;;;;4.55;3.40;;;;;;;24.06;52.98;96038.44;10301016;28;96880;-72
2022/06/03 12:46:35;;;;;;;7.18;3.20;;;;;;;24.61;52.46;96039.66;10309826;28;97071;-72
2022/06/03 12:51:57;;;;;;;4.65;2.88;;;;;;;25.00;51.92;96037.94;10316928;28;96783;-72
2022/06/03 12:57:08;;;;;;;4.30;2.83;;;;;;;24.74;52.52;96030.53;10318371;28;96764;-72
2022/06/03 13:02:18;;;;;;;7.50;3.03;;;;;;;24.39;51.70;96032.38;10309052;28;97007;-72
2022/06/03 13:07:53;;;;;;;3.92;3.30;;;;;;;24.36;51.00;96027.50;10316905;28;96724;-72
2022/06/03 13:13:23;;;;;;;4.50;3.20;;;;;;;24.63;50.66;96021.56;10316963;28;97009;-72
2022/06/03 13:18:39;;;;;;;3.92;2.95;;;;;;;24.72;51.64;96020.09;10315669;28;99815;-72
2022/06/03 13:23:56;;;;;;;6.40;3.35;;;;;;;24.97;50.31;96010.88;10312059;28;96769;-72
2022/06/03 13:29:04;;;;;;;5.97;2.95;;;;;;;25.12;50.21;96011.09;10307010;28;96816;-72
2022/06/03 13:34:19;;;;;;;5.38;3.15;;;;;;;25.08;49.78;96018.00;10317400;28;97810;-72
2022/06/03 13:39:59;;;;;;;4.47;2.97;;;;;;;25.11;49.68;96006.00;10315786;28;98214;-72
2022/06/03 13:45:20;;;;;;;5.40;2.75;;;;;;;25.14;49.46;96006.31;10317461;28;96831;-72
2022/06/03 13:50:35;;;;;;;5.07;2.75;;;;;;;25.39;49.29;95997.03;10308080;28;96991;-72
2022/06/03 13:55:51;;;;;;;5.13;2.78;;;;;;;26.12;47.47;95983.44;10330362;28;96912;-73
2022/06/03 14:01:07;;;;;;;6.10;3.20;;;;;;;26.58;46.69;95980.41;10316021;28;97397;-72
2022/06/03 14:06:18;;;;;;;7.57;2.88;;;;;;;27.48;44.59;95959.00;10315392;28;97082;-72
2022/06/03 14:11:28;;;;;;;6.32;2.88;;;;;;;29.76;40.67;95966.84;10305540;28;96726;-73
2022/06/03 14:16:38;;;;;;;4.20;2.40;;;;;;;31.94;37.97;95956.28;10317316;28;96992;-72
2022/06/03 14:21:45;;;;;;;2.85;2.20;;;;;;;34.06;34.42;95961.53;10316131;28;96683;-73
2022/06/03 14:26:54;;;;;;;3.50;2.10;;;;;;;35.74;32.56;95955.69;10322254;28;98020;-73
2022/06/03 14:32:01;;;;;;;7.43;2.45;;;;;;;37.15;29.68;95960.75;10306149;28;96805;-74
2022/06/03 14:37:10;;;;;;;5.40;2.28;;;;;;;38.05;28.62;95952.66;10314200;28;97153;-72
2022/06/03 14:42:27;;;;;;;7.38;2.78;;;;;;;39.10;27.15;95946.25;10314809;28;96992;-72
2022/06/03 14:47:36;;;;;;;3.88;2.28;;;;;;;39.22;26.56;95949.81;10307033;28;97343;-72
2022/06/03 14:52:44;;;;;;;6.40;2.50;;;;;;;39.10;25.71;95957.97;10309775;28;96731;-72
2022/06/03 14:57:54;;;;;;;6.03;2.40;;;;;;;39.67;26.04;95959.06;10326199;28;96943;-72
2022/06/03 15:03:08;;;;;;;5.43;2.30;;;;;;;40.20;24.29;95944.63;10313270;28;96745;-72
2022/06/03 15:08:18;;;;;;;4.43;2.10;;;;;;;39.72;25.55;95947.91;10313505;28;97104;-72
2022/06/03 15:13:27;;;;;;;4.90;2.37;;;;;;;39.91;25.69;95941.03;10312594;28;96798;-72
2022/06/03 15:18:33;;;;;;;3.13;1.90;;;;;;;40.07;25.88;95932.94;10313288;28;96952;-72
2022/06/03 15:23:38;;;;;;;3.92;2.28;;;;;;;40.67;25.14;95938.53;10305693;28;97256;-72
2022/06/03 15:28:47;;;;;;;5.43;2.00;;;;;;;41.02;24.05;95937.91;10321645;28;97217;-72
2022/06/03 15:33:55;;;;;;;5.13;2.40;;;;;;;41.28;23.75;95938.19;10312939;28;97353;-72
2022/06/03 15:39:15;;;;;;;3.28;1.85;;;;;;;41.57;23.69;95938.09;10313780;28;96775;-72
2022/06/03 15:44:29;;;;;;;3.80;2.23;;;;;;;41.71;23.45;95932.13;10303609;28;96779;-72
2022/06/03 15:49:35;;;;;;;3.92;2.00;;;;;;;42.18;23.20;95923.78;10317243;28;96961;-73
2022/06/03 15:54:52;;;;;;;8.02;2.30;;;;;;;42.30;22.46;95916.56;10313934;28;99871;-72
2022/06/03 16:00:06;;;;;;;6.22;2.42;;;;;;;41.66;23.21;95906.59;10318841;28;96855;-72
2022/06/03 16:05:14;;;;;;;3.53;1.90;;;;;;;41.15;23.77;95913.97;10309178;28;98318;-73
2022/06/03 16:10:21;;;;;;;4.25;2.20;;;;;;;40.89;23.87;95910.56;10311057;28;96773;-73
2022/06/03 16:15:33;;;;;;;3.53;2.03;;;;;;;40.49;24.43;95913.41;10328662;28;97136;-73
2022/06/03 16:20:48;;;;;;;4.93;2.50;;;;;;;40.13;24.55;95915.94;10318295;28;97100;-73
2022/06/03 16:26:06;;;;;;;5.30;2.25;;;;;;;39.80;24.65;95913.34;10323912;28;97843;-71
2022/06/03 16:31:21;;;;;;;5.97;2.50;;;;;;;39.64;24.66;95909.75;10316306;28;98565;-76
2022/06/03 16:36:37;;;;;;;5.57;2.25;;;;;;;38.93;25.11;95901.59;10317367;28;98764;-76
2022/06/03 16:41:47;;;;;;;3.60;2.00;;;;;;;39.17;24.46;95898.13;10304223;28;97738;-75
2022/06/03 16:47:10;;;;;;;5.00;2.50;;;;;;;38.08;26.01;95913.78;10311477;28;97684;-75
2022/06/03 16:52:26;;;;;;;4.97;2.45;;;;;;;36.12;28.39;95910.78;10318207;28;96964;-75
2022/06/03 16:57:32;;;;;;;6.32;2.55;;;;;;;34.03;31.00;95914.16;10308612;28;97749;-67
2022/06/03 17:02:35;;;;;;;6.50;2.40;;;;;;;32.40;33.84;95924.28;10323716;28;98376;-68
2022/06/03 17:07:40;;;;;;;3.35;2.30;;;;;;;31.22;35.38;95913.97;10322090;28;98657;-69
2022/06/03 17:12:46;;;;;;;6.07;2.42;;;;;;;30.25;36.89;95915.66;10321820;28;97034;-69
2022/06/03 17:17:49;;;;;;;4.80;2.50;;;;;;;29.31;38.38;95899.44;10315918;28;103606;-68
2022/06/03 17:23:07;;;;;;;5.25;2.78;;;;;;;28.55;40.08;95899.38;10294113;28;97041;-69
2022/06/03 17:28:29;;;;;;;6.60;3.22;;;;;;;28.00;41.19;95892.88;10305041;28;97988;-69
2022/06/03 17:33:36;;;;;;;7.15;3.80;;;;;;;27.65;41.90;95881.81;10318636;28;100512;-69
2022/06/03 17:38:55;;;;;;;5.05;2.78;;;;;;;27.17;42.65;95891.03;10311131;28;96900;-68
2022/06/03 17:44:06;;;;;;;7.32;3.00;;;;;;;26.90;43.90;95894.59;10323678;28;98099;-66
2022/06/03 17:49:18;;;;;;;5.20;2.70;;;;;;;26.74;44.38;95891.84;10314792;28;98249;-69
2022/06/03 18:00:02;;;;;;;6.43;3.38;;;;;;;26.25;45.80;95884.00;10329687;28;96991;-69
2022/06/03 18:05:16;;;;;;;7.30;3.20;;;;;;;25.74;47.14;95879.00;10324937;28;96996;-72
2022/06/03 18:10:32;;;;;;;5.72;2.95;;;;;;;25.03;48.48;95887.00;10324073;28;97231;-69
2022/06/03 18:15:36;;;;;;;5.55;3.20;;;;;;;24.84;49.06;95895.28;10326110;28;96818;-69
2022/06/03 18:20:44;;;;;;;13.18;10.48;;;;;;;24.45;49.63;95875.72;10328183;28;97066;-70
2022/06/03 18:26:05;;;;;;;6.50;4.03;;;;;;;24.04;50.47;95883.88;10327099;28;97137;-74
2022/06/03 18:31:21;;;;;;;9.63;5.57;;;;;;;23.74;51.33;95892.16;10324174;28;96870;-68
2022/06/03 18:36:51;;;;;;;5.72;3.28;;;;;;;23.48;51.54;95890.88;10327500;28;102166;-70
2022/06/03 18:42:11;;;;;;;4.60;3.33;;;;;;;23.34;51.91;95890.34;10323981;28;96810;-70
2022/06/03 18:47:34;;;;;;;8.82;3.67;;;;;;;23.29;51.91;95885.75;10325852;28;98087;-70
2022/06/03 18:53:13;;;;;;;5.80;3.60;;;;;;;22.99;53.08;95908.03;10323227;28;96831;-70
2022/06/03 18:58:48;;;;;;;4.38;3.50;;;;;;;22.86;53.63;95896.81;10319855;28;98360;-72
2022/06/03 19:04:04;;;;;;;5.93;3.47;;;;;;;22.68;53.54;95908.38;10323350;28;96960;-72
2022/06/03 19:09:19;;;;;;;5.07;3.42;;;;;;;22.54;54.36;95902.50;10326399;28;97927;-73
2022/06/03 19:14:52;;;;;;;4.35;3.70;;;;;;;22.34;55.04;95900.94;10322471;28;96880;-72
2022/06/03 19:20:12;;;;;;;5.85;3.90;;;;;;;22.27;55.73;95913.56;10323881;28;96869;-72
2022/06/03 19:25:25;;;;;;;5.88;3.83;;;;;;;22.19;55.94;95905.91;10315506;28;99024;-71
2022/06/03 19:30:32;;;;;;;6.63;4.15;;;;;;;21.92;56.93;95908.16;10326831;28;97811;-72
2022/06/03 19:35:44;;;;;;;5.50;3.65;;;;;;;21.70;58.21;95911.34;10326512;28;97525;-71
2022/06/03 19:40:53;;;;;;;6.15;3.78;;;;;;;21.53;59.30;95911.13;10315018;28;97511;-72
2022/06/03 19:46:23;;;;;;;6.93;3.55;;;;;;;21.48;59.39;95908.31;10325050;28;97855;-72
2022/06/03 19:51:42;;;;;;;6.45;4.30;;;;;;;21.32;59.80;95928.34;10324071;28;96883;-71
2022/06/03 19:56:49;;;;;;;8.13;4.18;;;;;;;21.01;60.33;95935.44;10323707;28;97333;-71
2022/06/03 20:02:01;;;;;;;11.63;4.47;;;;;;;20.81;61.26;95942.78;10327601;28;101126;-72
2022/06/03 20:07:07;;;;;;;10.20;4.22;;;;;;;20.78;61.83;95948.56;10306939;28;103389;-73
2022/06/03 20:17:52;;;;;;;7.53;4.15;;;;;;;20.48;61.74;95952.66;10315943;28;99263;-71
2022/06/03 20:23:02;;;;;;;7.78;4.47;;;;;;;20.31;62.87;95957.69;10326117;28;96899;-70
2022/06/03 20:28:11;;;;;;;6.95;4.30;;;;;;;20.11;63.46;95978.22;10309618;28;98348;-71
2022/06/03 20:33:37;;;;;;;7.15;4.10;;;;;;;20.17;63.20;95988.00;10305305;28;97189;-70
2022/06/03 20:38:47;;;;;;;8.35;4.22;;;;;;;20.33;63.23;95987.47;10322463;28;98194;-70
2022/06/03 20:44:02;;;;;;;7.78;4.82;;;;;;;20.34;62.86;95991.75;10327509;28;97349;-70
2022/06/03 20:49:14;;;;;;;;;;;;;;;20.17;62.69;96003.91;10301335;28;98118;-70
2022/06/03 20:54:21;;;;;;;7.15;3.83;;;;;;;19.81;64.30;95992.03;10268707;28;97375;-70
2022/06/03 20:59:25;;;;;;;7.43;4.20;;;;;;;19.75;64.36;96003.50;10238834;28;97334;-73
2022/06/03 21:15:13;;;;;;;8.18;5.07;;;;;;;19.89;64.35;96021.00;10241470;28;97365;-71
2022/06/03 21:20:19;;;;;;;9.60;4.70;;;;;;;19.87;63.78;96025.69;10250280;28;97322;-71
2022/06/03 21:25:22;;;;;;;10.13;4.53;;;;;;;19.94;63.41;96021.16;10248402;28;97045;-69
2022/06/03 21:30:25;;;;;;;8.50;4.75;;;;;;;19.92;64.66;96011.78;10248706;28;97738;-72
2022/06/03 21:36:00;;;;;;;6.90;4.15;;;;;;;19.79;65.06;96012.66;10244001;28;96848;-70
2022/06/03 21:41:07;;;;;;;9.30;4.60;;;;;;;19.41;65.91;96016.06;10241080;28;97088;-69
2022/06/03 21:46:20;;;;;;;7.50;4.25;;;;;;;19.27;66.90;96014.47;10234214;28;98810;-71
2022/06/03 21:51:44;;;;;;;8.00;4.00;;;;;;;19.09;67.02;96023.88;10242799;28;97994;-71
2022/06/03 21:56:54;;;;;;;;;;;;;;;18.95;66.42;96022.25;10227639;28;96917;-70
2022/06/03 22:01:59;;;;;;;9.88;4.28;;;;;;;18.94;66.31;96041.81;10240132;28;97574;-69
2022/06/03 22:07:06;;;;;;;11.02;4.22;;;;;;;19.00;66.30;96030.41;10248829;28;96746;-69
2022/06/03 22:17:29;;;;;;;10.23;4.18;;;;;;;18.87;66.83;96021.44;10243194;28;98028;-70
2022/06/03 22:22:35;;;;;;;8.80;4.03;;;;;;;18.75;67.49;96023.06;10244509;28;98576;-70
2022/06/03 22:27:47;;;;;;;5.38;3.50;;;;;;;18.74;67.23;96032.03;10234054;28;98461;-70
2022/06/03 22:33:00;;;;;;;5.88;3.63;;;;;;;18.74;67.43;96047.91;10242787;28;97143;-70
2022/06/03 22:43:42;;;;;;;7.25;3.42;;;;;;;19.05;66.20;96070.31;10242740;28;97017;-70
2022/06/03 22:48:45;;;;;;;6.00;4.35;;;;;;;19.19;66.11;96079.88;10245830;28;98053;-70
2022/06/03 22:53:50;;;;;;;8.88;3.97;;;;;;;19.22;66.80;96092.69;10280895;28;98073;-68
2022/06/03 22:58:53;;;;;;;7.85;3.83;;;;;;;19.11;66.88;96095.97;10324514;28;98000;-69
2022/06/03 23:03:56;;;;;;;6.65;2.60;;;;;;;19.16;64.36;96085.59;10324413;28;96819;-68
2022/06/03 23:09:00;;;;;;;12.50;6.22;;;;;;;19.30;65.39;96086.38;10321165;28;97076;-71
2022/06/03 23:14:03;;;;;;;8.52;4.13;;;;;;;19.32;65.62;96075.59;10330281;28;97043;-71
2022/06/03 23:19:07;;;;;;;9.70;5.07;;;;;;;19.32;65.16;96086.19;10324811;28;98358;-70
2022/06/03 23:24:11;;;;;;;7.28;5.07;;;;;;;19.43;65.17;96067.78;10320299;28;96904;-69
2022/06/03 23:29:14;;;;;;;7.65;3.80;;;;;;;19.50;64.33;96051.88;10317729;28;96973;-69
2022/06/03 23:34:17;;;;;;;7.25;4.05;;;;;;;19.60;63.72;96062.06;10317280;28;98249;-70
2022/06/03 23:39:21;;;;;;;8.73;4.32;;;;;;;19.58;63.52;96064.91;10318679;28;98710;-70
2022/06/03 23:49:44;;;;;;;8.02;4.63;;;;;;;19.38;65.31;96064.97;10317912;28;96764;-70
2022/06/03 23:54:48;;;;;;;8.27;4.93;;;;;;;19.22;65.74;96055.63;10318278;28;97588;-70
2022/06/03 23:59:51;;;;;;;7.72;4.72;;;;;;;19.10;66.34;96069.69;10303293;28;96926;-70
